Time;durP1;ratioP1;P1;durP2;ratioP2;P2;SDS_P1;SDS_P2;PMS_P1;PMS_P2;Temp;Humidity;BMP_temperature;BMP_pressure;BME280_temperature;BME280_humidity;BME280_pressure;Samples;Min_cycle;Max_cycle;Signal;HPM_P1;HPM_P2
2022/08/31 00:04:00;;;;;;;1999.90;999.90;;;;;;;;;;5083109;28;20389;-70
2022/08/31 00:06:29;;;;;;;1999.90;999.90;;;;;;;;;;5090038;28;21581;-69
2022/08/31 00:08:57;;;;;;;1999.90;999.90;;;;;;;;;;5077937;28;20385;-69
2022/08/31 00:11:29;;;;;;;1999.90;999.90;;;;;;;;;;5096045;27;20400;-68
2022/08/31 00:13:57;;;;;;;1999.90;999.90;;;;;;;;;;5078079;28;20418;-69
2022/08/31 00:16:27;;;;;;;1999.90;999.90;;;;;;;;;;5081625;28;20404;-69
2022/08/31 00:18:55;;;;;;;1999.90;999.90;;;;;;;;;;5082059;28;20401;-69
2022/08/31 00:21:26;;;;;;;1999.90;999.90;;;;;;;;;;5082859;28;20383;-69
2022/08/31 00:23:54;;;;;;;1999.90;999.90;;;;;;;;;;5083654;28;20386;-68
2022/08/31 00:26:23;;;;;;;1999.90;999.90;;;;;;;;;;5084006;28;20435;-69
2022/08/31 00:28:50;;;;;;;1999.90;999.90;;;;;;;;;;5098371;27;20480;-69
2022/08/31 00:31:18;;;;;;;1999.90;999.90;;;;;;;;;;5079995;28;20939;-69
2022/08/31 00:33:51;;;;;;;1999.90;999.90;;;;;;;;;;5085491;28;20486;-69
2022/08/31 00:36:19;;;;;;;1999.90;999.90;;;;;;;;;;5082939;27;20544;-69
2022/08/31 00:38:48;;;;;;;1999.90;999.90;;;;;;;;;;5097557;27;20405;-69
2022/08/31 00:41:17;;;;;;;1999.90;999.90;;;;;;;;;;5080842;28;21214;-69
2022/08/31 00:43:48;;;;;;;1999.90;999.90;;;;;;;;;;5076803;28;20485;-68
2022/08/31 00:46:16;;;;;;;1999.90;999.90;;;;;;;;;;5082194;28;20445;-69
2022/08/31 00:48:50;;;;;;;1999.90;999.90;;;;;;;;;;5078504;28;20480;-69
2022/08/31 00:51:19;;;;;;;1999.90;999.90;;;;;;;;;;5091880;28;20395;-69
2022/08/31 00:53:47;;;;;;;1999.90;999.90;;;;;;;;;;5081252;28;20835;-68
2022/08/31 00:56:18;;;;;;;1999.90;999.90;;;;;;;;;;5075315;28;21293;-69
2022/08/31 00:58:46;;;;;;;1999.90;999.90;;;;;;;;;;5083699;28;20388;-69
2022/08/31 01:01:21;;;;;;;1999.90;999.90;;;;;;;;;;5065381;28;20424;-69
2022/08/31 01:03:49;;;;;;;1999.90;999.90;;;;;;;;;;5080900;28;20408;-69
2022/08/31 01:06:19;;;;;;;1999.90;999.90;;;;;;;;;;5077561;28;20478;-69
2022/08/31 01:08:47;;;;;;;1999.90;999.90;;;;;;;;;;5061902;28;20393;-70
2022/08/31 01:11:15;;;;;;;1999.90;999.90;;;;;;;;;;5061307;28;20930;-70
2022/08/31 01:13:44;;;;;;;1999.90;999.90;;;;;;;;;;5085294;28;20744;-70
2022/08/31 01:16:14;;;;;;;1999.90;999.90;;;;;;;;;;5069851;28;20511;-70
2022/08/31 01:18:43;;;;;;;1999.90;999.90;;;;;;;;;;5084626;28;20479;-70
2022/08/31 01:21:17;;;;;;;1999.90;999.90;;;;;;;;;;5086198;28;20443;-70
2022/08/31 01:23:46;;;;;;;1999.90;999.90;;;;;;;;;;5067107;28;20493;-69
2022/08/31 01:26:16;;;;;;;1999.90;999.90;;;;;;;;;;5063512;28;20778;-69
2022/08/31 01:28:45;;;;;;;1999.90;999.90;;;;;;;;;;5066497;28;20468;-69
2022/08/31 01:31:15;;;;;;;1999.90;999.90;;;;;;;;;;5084433;28;20461;-69
2022/08/31 01:33:43;;;;;;;1999.90;999.90;;;;;;;;;;5059879;28;20512;-69
2022/08/31 01:36:11;;;;;;;1999.90;999.90;;;;;;;;;;5070971;28;20494;-69
2022/08/31 01:38:43;;;;;;;1999.90;999.90;;;;;;;;;;5057648;28;21238;-69
2022/08/31 01:41:12;;;;;;;1999.90;999.90;;;;;;;;;;5058785;28;20398;-69
2022/08/31 01:43:41;;;;;;;1999.90;999.90;;;;;;;;;;5106137;27;20392;-69
2022/08/31 01:46:11;;;;;;;1999.90;999.90;;;;;;;;;;5086574;28;20526;-69
2022/08/31 01:48:40;;;;;;;1999.90;999.90;;;;;;;;;;5084302;28;20847;-69
2022/08/31 01:51:09;;;;;;;1999.90;999.90;;;;;;;;;;5085174;28;20646;-69
2022/08/31 01:53:41;;;;;;;1999.90;999.90;;;;;;;;;;5083636;28;20397;-69
2022/08/31 01:56:15;;;;;;;1999.90;999.90;;;;;;;;;;5089042;28;20405;-69
2022/08/31 01:58:43;;;;;;;1999.90;999.90;;;;;;;;;;5089468;28;20400;-69
2022/08/31 02:01:34;;;;;;;1999.90;999.90;;;;;;;;;;5084113;28;20397;-69
2022/08/31 02:04:03;;;;;;;1999.90;999.90;;;;;;;;;;5086828;28;20471;-69
2022/08/31 02:06:31;;;;;;;1999.90;999.90;;;;;;;;;;5083762;28;20471;-69
2022/08/31 02:08:59;;;;;;;1999.90;999.90;;;;;;;;;;5059841;28;20399;-69
2022/08/31 02:11:28;;;;;;;1999.90;999.90;;;;;;;;;;5087658;28;20427;-69
2022/08/31 02:13:56;;;;;;;1999.90;999.90;;;;;;;;;;5067008;28;21352;-69
2022/08/31 02:16:24;;;;;;;1999.90;999.90;;;;;;;;;;5082798;28;20456;-69
2022/08/31 02:18:52;;;;;;;1999.90;999.90;;;;;;;;;;5098973;27;20464;-70
2022/08/31 02:21:20;;;;;;;1999.90;999.90;;;;;;;;;;5080363;28;20945;-69
2022/08/31 02:23:48;;;;;;;1999.90;999.90;;;;;;;;;;5084888;28;21384;-68
2022/08/31 02:26:15;;;;;;;1999.90;999.90;;;;;;;;;;5079001;28;20451;-70
2022/08/31 02:28:46;;;;;;;1999.90;999.90;;;;;;;;;;5061807;28;20386;-69
2022/08/31 02:31:14;;;;;;;1999.90;999.90;;;;;;;;;;5065052;28;20397;-69
2022/08/31 02:33:49;;;;;;;1999.90;999.90;;;;;;;;;;5076883;28;20418;-69
2022/08/31 02:36:20;;;;;;;1999.90;999.90;;;;;;;;;;5077347;28;21036;-69
2022/08/31 02:38:48;;;;;;;1999.90;999.90;;;;;;;;;;5085110;28;20404;-68
2022/08/31 02:41:17;;;;;;;1999.90;999.90;;;;;;;;;;5069433;28;20853;-69
2022/08/31 02:43:46;;;;;;;1999.90;999.90;;;;;;;;;;5081297;28;20409;-69
2022/08/31 02:46:15;;;;;;;1999.90;999.90;;;;;;;;;;5056925;28;20403;-69
2022/08/31 02:48:50;;;;;;;1999.90;999.90;;;;;;;;;;5084135;28;21710;-68
2022/08/31 02:51:20;;;;;;;1999.90;999.90;;;;;;;;;;5089715;28;20468;-69
2022/08/31 02:53:48;;;;;;;1999.90;999.90;;;;;;;;;;5083756;28;20412;-67
2022/08/31 02:56:16;;;;;;;1999.90;999.90;;;;;;;;;;5070226;28;20969;-68
2022/08/31 02:58:44;;;;;;;1999.90;999.90;;;;;;;;;;5092077;28;20396;-68
2022/08/31 03:01:13;;;;;;;1999.90;999.90;;;;;;;;;;5086252;28;20521;-69
2022/08/31 03:03:41;;;;;;;1999.90;999.90;;;;;;;;;;5086046;28;20910;-68
2022/08/31 03:06:15;;;;;;;1999.90;999.90;;;;;;;;;;5087495;28;20407;-68
2022/08/31 03:08:43;;;;;;;1999.90;999.90;;;;;;;;;;5073386;28;20406;-69
2022/08/31 03:11:11;;;;;;;1999.90;999.90;;;;;;;;;;5079985;28;20407;-68
2022/08/31 03:13:40;;;;;;;1999.90;999.90;;;;;;;;;;5071764;28;20454;-68
2022/08/31 03:16:08;;;;;;;1999.90;999.90;;;;;;;;;;5085955;28;20408;-68
2022/08/31 03:18:37;;;;;;;1999.90;999.90;;;;;;;;;;5078477;28;20397;-68
2022/08/31 03:21:05;;;;;;;1999.90;999.90;;;;;;;;;;5064754;28;20387;-68
2022/08/31 03:23:33;;;;;;;1999.90;999.90;;;;;;;;;;5103977;27;20909;-69
2022/08/31 03:26:04;;;;;;;1999.90;999.90;;;;;;;;;;5066134;28;20423;-69
2022/08/31 03:28:32;;;;;;;1999.90;999.90;;;;;;;;;;5073076;28;21208;-68
2022/08/31 03:31:20;;;;;;;1999.90;999.90;;;;;;;;;;5088685;28;20401;-68
2022/08/31 03:33:49;;;;;;;1999.90;999.90;;;;;;;;;;5085834;28;20405;-67
2022/08/31 03:36:17;;;;;;;1999.90;999.90;;;;;;;;;;5091297;28;20405;-69
2022/08/31 03:38:44;;;;;;;1999.90;999.90;;;;;;;;;;5083634;28;20472;-69
2022/08/31 03:41:13;;;;;;;1999.90;999.90;;;;;;;;;;5103545;27;20424;-69
2022/08/31 03:43:42;;;;;;;1999.90;999.90;;;;;;;;;;5082331;28;20409;-69
2022/08/31 03:46:09;;;;;;;1999.90;999.90;;;;;;;;;;5086575;28;20424;-69
2022/08/31 03:48:41;;;;;;;1999.90;999.90;;;;;;;;;;5076720;28;20396;-69
2022/08/31 03:51:11;;;;;;;1999.90;999.90;;;;;;;;;;5068021;28;20462;-69
2022/08/31 03:53:41;;;;;;;1999.90;999.90;;;;;;;;;;5084258;28;20436;-69
2022/08/31 03:56:15;;;;;;;1999.90;999.90;;;;;;;;;;5090358;28;20424;-69
2022/08/31 03:58:43;;;;;;;1999.90;999.90;;;;;;;;;;5064058;28;20387;-70
2022/08/31 04:01:26;;;;;;;1999.90;999.90;;;;;;;;;;5083011;28;20413;-70
2022/08/31 04:04:12;;;;;;;1999.90;999.90;;;;;;;;;;5076123;28;20445;-70
2022/08/31 04:06:50;;;;;;;1999.90;999.90;;;;;;;;;;5082369;28;22729;-73
2022/08/31 04:09:48;;;;;;;1999.90;999.90;;;;;;;;;;5080095;28;20397;-70
2022/08/31 04:12:34;;;;;;;1999.90;999.90;;;;;;;;;;5077915;28;21363;-71
2022/08/31 04:15:13;;;;;;;1999.90;999.90;;;;;;;;;;5080033;28;20477;-71
2022/08/31 04:18:00;;;;;;;1999.90;999.90;;;;;;;;;;5079849;28;20400;-71
2022/08/31 04:20:47;;;;;;;1999.90;999.90;;;;;;;;;;5069422;28;20973;-71
2022/08/31 04:23:16;;;;;;;1999.90;999.90;;;;;;;;;;5067543;28;20478;-71
2022/08/31 04:25:52;;;;;;;1999.90;999.90;;;;;;;;;;5063810;28;20405;-70
2022/08/31 04:28:20;;;;;;;1999.90;999.90;;;;;;;;;;5078147;28;20478;-71
2022/08/31 04:30:48;;;;;;;1999.90;999.90;;;;;;;;;;5081893;28;20423;-71
2022/08/31 04:33:16;;;;;;;1999.90;999.90;;;;;;;;;;5080678;28;20416;-74
2022/08/31 04:35:44;;;;;;;1999.90;999.90;;;;;;;;;;5088420;28;20448;-74
2022/08/31 04:38:13;;;;;;;1999.90;999.90;;;;;;;;;;5080903;28;21255;-73
2022/08/31 04:40:43;;;;;;;1999.90;999.90;;;;;;;;;;5060664;28;20443;-73
2022/08/31 04:43:11;;;;;;;1999.90;999.90;;;;;;;;;;5071617;28;20395;-73
2022/08/31 04:45:42;;;;;;;1999.90;999.90;;;;;;;;;;5067914;28;21433;-73
2022/08/31 04:48:12;;;;;;;1999.90;999.90;;;;;;;;;;5073992;28;20417;-77
2022/08/31 04:50:41;;;;;;;1999.90;999.90;;;;;;;;;;5080170;28;20385;-73
2022/08/31 04:53:10;;;;;;;1999.90;999.90;;;;;;;;;;5074135;28;20428;-72
2022/08/31 04:55:39;;;;;;;1999.90;999.90;;;;;;;;;;5071290;28;21007;-73
2022/08/31 04:58:10;;;;;;;1999.90;999.90;;;;;;;;;;5078593;28;20400;-73
2022/08/31 05:00:38;;;;;;;1999.90;999.90;;;;;;;;;;5076449;28;20400;-73
2022/08/31 05:03:20;;;;;;;1999.90;999.90;;;;;;;;;;5080763;28;20467;-73
2022/08/31 05:05:52;;;;;;;1999.90;999.90;;;;;;;;;;5050672;28;20510;-73
2022/08/31 05:08:20;;;;;;;1999.90;999.90;;;;;;;;;;5061573;28;20473;-73
2022/08/31 05:10:48;;;;;;;1999.90;999.90;;;;;;;;;;5094055;27;21265;-72
2022/08/31 05:13:17;;;;;;;1999.90;999.90;;;;;;;;;;5088542;28;20397;-73
2022/08/31 05:15:45;;;;;;;1999.90;999.90;;;;;;;;;;5082950;28;20417;-73
2022/08/31 05:18:19;;;;;;;1999.90;999.90;;;;;;;;;;5068963;28;20434;-74
2022/08/31 05:20:53;;;;;;;1999.90;999.90;;;;;;;;;;5084465;28;20446;-74
2022/08/31 05:23:21;;;;;;;1999.90;999.90;;;;;;;;;;5078140;28;20425;-73
2022/08/31 05:25:49;;;;;;;1999.90;999.90;;;;;;;;;;5063019;28;20419;-73
2022/08/31 05:28:22;;;;;;;1999.90;999.90;;;;;;;;;;5055679;28;20456;-73
2022/08/31 05:30:50;;;;;;;1999.90;999.90;;;;;;;;;;5082856;28;20716;-73
2022/08/31 05:33:30;;;;;;;1999.90;999.90;;;;;;;;;;5059675;28;20391;-73
2022/08/31 05:36:00;;;;;;;1999.90;999.90;;;;;;;;;;5082829;28;20842;-73
2022/08/31 05:38:28;;;;;;;1999.90;999.90;;;;;;;;;;5073746;28;20435;-73
2022/08/31 05:40:57;;;;;;;1999.90;999.90;;;;;;;;;;5057174;28;20409;-73
2022/08/31 05:43:27;;;;;;;1999.90;999.90;;;;;;;;;;5058799;28;20411;-73
2022/08/31 05:45:55;;;;;;;1999.90;999.90;;;;;;;;;;5081925;28;20393;-73
2022/08/31 05:48:23;;;;;;;1999.90;999.90;;;;;;;;;;5065478;28;20494;-73
2022/08/31 05:50:59;;;;;;;1999.90;999.90;;;;;;;;;;5080003;28;20438;-73
2022/08/31 05:53:27;;;;;;;1999.90;999.90;;;;;;;;;;5068594;28;21177;-72
2022/08/31 05:55:59;;;;;;;1999.90;999.90;;;;;;;;;;5054100;28;20897;-72
2022/08/31 05:58:29;;;;;;;1999.90;999.90;;;;;;;;;;5085596;28;20405;-73
2022/08/31 06:00:57;;;;;;;1999.90;999.90;;;;;;;;;;5077834;28;20445;-74
2022/08/31 06:03:48;;;;;;;1999.90;999.90;;;;;;;;;;5084879;28;20430;-74
2022/08/31 06:06:16;;;;;;;1999.90;999.90;;;;;;;;;;5059994;28;20935;-73
2022/08/31 06:08:44;;;;;;;1999.90;999.90;;;;;;;;;;5081974;28;20409;-74
2022/08/31 06:11:18;;;;;;;1999.90;999.90;;;;;;;;;;5069992;28;20383;-73
2022/08/31 06:13:49;;;;;;;1999.90;999.90;;;;;;;;;;5074897;28;20387;-72
2022/08/31 06:16:17;;;;;;;1999.90;999.90;;;;;;;;;;5087029;28;20493;-74
2022/08/31 06:18:49;;;;;;;1999.90;999.90;;;;;;;;;;5069140;28;20397;-74
2022/08/31 06:21:19;;;;;;;1999.90;999.90;;;;;;;;;;5059312;28;20395;-74
2022/08/31 06:23:48;;;;;;;1999.90;999.90;;;;;;;;;;5080772;28;20459;-75
2022/08/31 06:26:17;;;;;;;1999.90;999.90;;;;;;;;;;5099519;27;20518;-74
2022/08/31 06:28:47;;;;;;;1999.90;999.90;;;;;;;;;;5080832;28;20407;-74
2022/08/31 06:31:17;;;;;;;1999.90;999.90;;;;;;;;;;5098550;27;20475;-74
2022/08/31 06:33:46;;;;;;;1999.90;999.90;;;;;;;;;;5069102;28;20484;-73
2022/08/31 06:36:18;;;;;;;1999.90;999.90;;;;;;;;;;5084329;28;20419;-73
2022/08/31 06:39:06;;;;;;;1999.90;999.90;;;;;;;;;;5063812;28;20397;-73
2022/08/31 06:41:54;;;;;;;1999.90;999.90;;;;;;;;;;5084547;28;20419;-73
2022/08/31 06:44:59;;;;;;;1999.90;999.90;;;;;;;;;;5069752;28;20389;-74
2022/08/31 06:47:40;;;;;;;1999.90;999.90;;;;;;;;;;5082534;28;20455;-73
2022/08/31 06:50:11;;;;;;;1999.90;999.90;;;;;;;;;;5069299;28;20417;-75
2022/08/31 06:52:39;;;;;;;1999.90;999.90;;;;;;;;;;5080107;28;20721;-73
2022/08/31 06:55:24;;;;;;;1999.90;999.90;;;;;;;;;;5061742;28;20413;-73
2022/08/31 06:58:10;;;;;;;1999.90;999.90;;;;;;;;;;5091073;28;20880;-74
2022/08/31 07:00:58;;;;;;;1999.90;999.90;;;;;;;;;;5082682;28;20452;-73
2022/08/31 07:03:39;;;;;;;1999.90;999.90;;;;;;;;;;5069931;28;20452;-73
2022/08/31 07:06:08;;;;;;;1999.90;999.90;;;;;;;;;;5096064;27;20403;-74
2022/08/31 07:08:38;;;;;;;1999.90;999.90;;;;;;;;;;5069973;28;20490;-74
2022/08/31 07:11:11;;;;;;;1999.90;999.90;;;;;;;;;;5066690;28;20450;-74
2022/08/31 07:13:38;;;;;;;1999.90;999.90;;;;;;;;;;5085811;28;20389;-74
2022/08/31 07:16:09;;;;;;;1999.90;999.90;;;;;;;;;;5081052;28;20383;-74
2022/08/31 07:18:38;;;;;;;1999.90;999.90;;;;;;;;;;5066446;28;20455;-74
2022/08/31 07:21:12;;;;;;;1999.90;999.90;;;;;;;;;;5069780;28;20408;-74
2022/08/31 07:23:42;;;;;;;1999.90;999.90;;;;;;;;;;5067019;28;20398;-74
2022/08/31 07:26:15;;;;;;;1999.90;999.90;;;;;;;;;;5080694;28;20389;-73
2022/08/31 07:28:43;;;;;;;1999.90;999.90;;;;;;;;;;5082420;28;20518;-74
2022/08/31 07:31:16;;;;;;;1999.90;999.90;;;;;;;;;;5072379;28;20411;-74
2022/08/31 07:33:44;;;;;;;1999.90;999.90;;;;;;;;;;5082491;28;20487;-74
2022/08/31 07:36:13;;;;;;;1999.90;999.90;;;;;;;;;;5101529;27;20495;-74
2022/08/31 07:44:21;;;;;;;1999.90;999.90;;;;;;;;;;5059525;28;20388;-74
2022/08/31 07:46:54;;;;;;;1999.90;999.90;;;;;;;;;;5062136;28;20484;-74
2022/08/31 07:49:25;;;;;;;1999.90;999.90;;;;;;;;;;5066390;28;20931;-74
2022/08/31 07:52:20;;;;;;;1999.90;999.90;;;;;;;;;;5066980;28;20403;-74
2022/08/31 07:55:11;;;;;;;1999.90;999.90;;;;;;;;;;5082606;28;20424;-74
2022/08/31 07:57:53;;;;;;;1999.90;999.90;;;;;;;;;;5082850;28;20403;-74
2022/08/31 08:00:23;;;;;;;1999.90;999.90;;;;;;;;;;5085105;28;20396;-74
2022/08/31 08:02:53;;;;;;;1999.90;999.90;;;;;;;;;;5080101;28;20405;-74
2022/08/31 08:05:27;;;;;;;1999.90;999.90;;;;;;;;;;5109541;27;20381;-74
2022/08/31 08:08:15;;;;;;;1999.90;999.90;;;;;;;;;;5085192;28;20403;-74
2022/08/31 08:10:55;;;;;;;1999.90;999.90;;;;;;;;;;5097009;27;20407;-74
2022/08/31 08:13:41;;;;;;;1999.90;999.90;;;;;;;;;;5078958;28;20520;-74
2022/08/31 08:16:40;;;;;;;1999.90;999.90;;;;;;;;;;5082486;28;20386;-74
2022/08/31 08:19:28;;;;;;;1999.90;999.90;;;;;;;;;;5082412;28;20433;-74
2022/08/31 08:21:56;;;;;;;1999.90;999.90;;;;;;;;;;5081831;28;20500;-74
2022/08/31 08:24:31;;;;;;;1999.90;999.90;;;;;;;;;;5083966;28;20398;-74
2022/08/31 08:27:04;;;;;;;1999.90;999.90;;;;;;;;;;5098571;27;20392;-74
2022/08/31 08:29:59;;;;;;;1999.90;999.90;;;;;;;;;;5078060;28;20411;-74
2022/08/31 08:32:30;;;;;;;1999.90;999.90;;;;;;;;;;5081168;28;20395;-74
2022/08/31 08:34:59;;;;;;;1999.90;999.90;;;;;;;;;;5083854;28;20440;-75
2022/08/31 08:37:27;;;;;;;1999.90;999.90;;;;;;;;;;5087488;28;20411;-74
2022/08/31 08:40:26;;;;;;;1999.90;999.90;;;;;;;;;;5088930;28;20394;-72
2022/08/31 08:42:55;;;;;;;1999.90;999.90;;;;;;;;;;5080102;28;20424;-72
2022/08/31 08:45:23;;;;;;;1999.90;999.90;;;;;;;;;;5076448;28;20412;-72
2022/08/31 08:47:53;;;;;;;1999.90;999.90;;;;;;;;;;5079735;28;20917;-73
2022/08/31 08:50:23;;;;;;;1999.90;999.90;;;;;;;;;;5084028;28;21301;-72
2022/08/31 08:52:51;;;;;;;1999.90;999.90;;;;;;;;;;5082544;28;20393;-72
2022/08/31 08:55:20;;;;;;;1999.90;999.90;;;;;;;;;;5065974;28;20402;-73
2022/08/31 08:57:50;;;;;;;1999.90;999.90;;;;;;;;;;5065340;28;20926;-73
2022/08/31 09:00:20;;;;;;;1999.90;999.90;;;;;;;;;;5068581;28;20413;-73
2022/08/31 09:02:56;;;;;;;1999.90;999.90;;;;;;;;;;5066122;28;20458;-72
2022/08/31 09:05:55;;;;;;;1999.90;999.90;;;;;;;;;;5082770;28;20500;-77
2022/08/31 09:08:40;;;;;;;1999.90;999.90;;;;;;;;;;5093689;27;20400;-71
2022/08/31 09:11:16;;;;;;;1999.90;999.90;;;;;;;;;;5078351;28;20421;-71
2022/08/31 09:13:52;;;;;;;1999.90;999.90;;;;;;;;;;5072786;28;20912;-70
2022/08/31 09:16:27;;;;;;;1999.90;999.90;;;;;;;;;;5079498;28;20411;-71
2022/08/31 09:18:56;;;;;;;1999.90;999.90;;;;;;;;;;5082598;28;20388;-71
2022/08/31 09:21:28;;;;;;;1999.90;999.90;;;;;;;;;;5086275;28;20432;-71
2022/08/31 09:24:00;;;;;;;1999.90;999.90;;;;;;;;;;5079107;28;20417;-71
2022/08/31 09:26:52;;;;;;;1999.90;999.90;;;;;;;;;;5084403;28;21476;-71
2022/08/31 09:29:32;;;;;;;1999.90;999.90;;;;;;;;;;5089263;28;20395;-72
2022/08/31 09:32:04;;;;;;;1999.90;999.90;;;;;;;;;;5087647;28;20441;-71
2022/08/31 09:34:36;;;;;;;1999.90;999.90;;;;;;;;;;5092518;27;20383;-72
2022/08/31 09:37:15;;;;;;;1999.90;999.90;;;;;;;;;;5087179;28;20397;-72
2022/08/31 09:39:46;;;;;;;1999.90;999.90;;;;;;;;;;5093139;28;20396;-72
2022/08/31 09:42:18;;;;;;;1999.90;999.90;;;;;;;;;;5079098;28;20411;-74
2022/08/31 09:44:47;;;;;;;1999.90;999.90;;;;;;;;;;5086350;28;20447;-75
2022/08/31 09:47:42;;;;;;;1999.90;999.90;;;;;;;;;;5086158;28;20456;-73
2022/08/31 09:50:10;;;;;;;1999.90;999.90;;;;;;;;;;5078157;28;20960;-75
2022/08/31 09:55:27;;;;;;;1999.90;999.90;;;;;;;;;;5064991;28;20400;-74
2022/08/31 09:57:57;;;;;;;1999.90;999.90;;;;;;;;;;5088474;28;20885;-74
2022/08/31 10:00:31;;;;;;;1999.90;999.90;;;;;;;;;;5099514;27;20385;-73
2022/08/31 10:03:08;;;;;;;1999.90;999.90;;;;;;;;;;5092718;28;20404;-74
2022/08/31 10:05:40;;;;;;;1999.90;999.90;;;;;;;;;;5096453;27;20396;-74
2022/08/31 10:08:14;;;;;;;1999.90;999.90;;;;;;;;;;5085927;28;20876;-74
2022/08/31 10:10:47;;;;;;;1999.90;999.90;;;;;;;;;;5094333;28;20394;-73
2022/08/31 10:13:17;;;;;;;1999.90;999.90;;;;;;;;;;5088581;28;20441;-74
2022/08/31 10:15:51;;;;;;;1999.90;999.90;;;;;;;;;;5085017;28;20412;-73
2022/08/31 10:18:22;;;;;;;1999.90;999.90;;;;;;;;;;5089607;28;20448;-71
2022/08/31 10:20:55;;;;;;;1999.90;999.90;;;;;;;;;;5083537;28;20834;-76
2022/08/31 10:23:32;;;;;;;1999.90;999.90;;;;;;;;;;5082324;28;20410;-75
2022/08/31 10:26:02;;;;;;;1999.90;999.90;;;;;;;;;;5090490;28;20903;-75
2022/08/31 10:28:34;;;;;;;1999.90;999.90;;;;;;;;;;5084562;28;20436;-76
2022/08/31 10:31:03;;;;;;;1999.90;999.90;;;;;;;;;;5082475;28;20389;-76
2022/08/31 10:35:01;;;;;;;1999.90;999.90;;;;;;;;;;5083450;28;20385;-74
2022/08/31 10:36:29;;;;;;;1999.90;999.90;;;;;;;;;;5087313;28;20395;-77
2022/08/31 10:38:59;;;;;;;1999.90;999.90;;;;;;;;;;5100480;27;20416;-77
2022/08/31 10:41:29;;;;;;;1999.90;999.90;;;;;;;;;;5082873;28;20918;-74
2022/08/31 10:44:00;;;;;;;1999.90;999.90;;;;;;;;;;5085868;28;20385;-74
2022/08/31 10:46:33;;;;;;;1999.90;999.90;;;;;;;;;;5089279;27;20405;-74
2022/08/31 10:49:03;;;;;;;1999.90;999.90;;;;;;;;;;5089715;28;20407;-74
2022/08/31 10:51:37;;;;;;;1999.90;999.90;;;;;;;;;;5085649;27;20396;-78
2022/08/31 10:54:15;;;;;;;1999.90;999.90;;;;;;;;;;5079097;28;20441;-73
2022/08/31 10:56:54;;;;;;;1999.90;999.90;;;;;;;;;;5103468;27;20431;-73
2022/08/31 10:59:27;;;;;;;1999.90;999.90;;;;;;;;;;5082145;28;20401;-73
2022/08/31 11:01:58;;;;;;;1999.90;999.90;;;;;;;;;;5089439;28;20423;-73
2022/08/31 11:04:42;;;;;;;1999.90;999.90;;;;;;;;;;5083611;28;20392;-72
2022/08/31 11:07:15;;;;;;;1999.90;999.90;;;;;;;;;;5077234;28;20383;-72
2022/08/31 11:09:47;;;;;;;1999.90;999.90;;;;;;;;;;5089042;28;20457;-72
2022/08/31 11:12:20;;;;;;;1999.90;999.90;;;;;;;;;;5083980;28;20242;-72
2022/08/31 11:14:57;;;;;;;1999.90;999.90;;;;;;;;;;5080065;28;20717;-72
2022/08/31 11:17:31;;;;;;;1999.90;999.90;;;;;;;;;;5081871;28;20713;-71
2022/08/31 11:20:16;;;;;;;1999.90;999.90;;;;;;;;;;5097544;27;20460;-72
2022/08/31 11:22:51;;;;;;;1999.90;999.90;;;;;;;;;;5083502;28;20492;-72
2022/08/31 11:25:37;;;;;;;1999.90;999.90;;;;;;;;;;5078320;28;20407;-72
2022/08/31 11:28:10;;;;;;;1999.90;999.90;;;;;;;;;;5078785;28;21535;-72
2022/08/31 11:30:41;;;;;;;1999.90;999.90;;;;;;;;;;5085056;28;20409;-74
2022/08/31 11:33:10;;;;;;;1999.90;999.90;;;;;;;;;;5088244;28;20808;-73
2022/08/31 11:35:56;;;;;;;1999.90;999.90;;;;;;;;;;5086016;28;20405;-73
2022/08/31 11:38:44;;;;;;;1999.90;999.90;;;;;;;;;;5081694;28;20411;-74
2022/08/31 11:41:31;;;;;;;1999.90;999.90;;;;;;;;;;5079121;28;20473;-73
2022/08/31 11:44:03;;;;;;;1999.90;999.90;;;;;;;;;;5080960;28;20388;-73
2022/08/31 11:47:00;;;;;;;1999.90;999.90;;;;;;;;;;5096378;27;20395;-75
2022/08/31 11:49:43;;;;;;;1999.90;999.90;;;;;;;;;;5083043;28;20409;-74
2022/08/31 11:52:13;;;;;;;1999.90;999.90;;;;;;;;;;5086382;28;20418;-74
2022/08/31 11:54:56;;;;;;;1999.90;999.90;;;;;;;;;;5081198;28;20374;-73
2022/08/31 11:57:25;;;;;;;1999.90;999.90;;;;;;;;;;5088352;28;20375;-73
2022/08/31 11:59:54;;;;;;;1999.90;999.90;;;;;;;;;;5081761;28;20403;-72
2022/08/31 12:02:44;;;;;;;1999.90;999.90;;;;;;;;;;5087153;28;20440;-72
2022/08/31 12:05:12;;;;;;;1999.90;999.90;;;;;;;;;;5087761;28;20414;-73
2022/08/31 12:07:42;;;;;;;1999.90;999.90;;;;;;;;;;5085535;28;21008;-73
2022/08/31 12:10:25;;;;;;;1999.90;999.90;;;;;;;;;;5080716;28;20405;-74
2022/08/31 12:12:59;;;;;;;1999.90;999.90;;;;;;;;;;5080491;28;20408;-74
2022/08/31 12:15:34;;;;;;;1999.90;999.90;;;;;;;;;;5082244;28;20377;-75
2022/08/31 12:18:09;;;;;;;1999.90;999.90;;;;;;;;;;5098486;27;20886;-75
2022/08/31 12:23:36;;;;;;;1999.90;999.90;;;;;;;;;;5082305;28;21182;-72
2022/08/31 12:26:09;;;;;;;1999.90;999.90;;;;;;;;;;5099129;27;20405;-72
2022/08/31 12:28:46;;;;;;;1999.90;999.90;;;;;;;;;;5080608;28;20419;-75
2022/08/31 12:31:16;;;;;;;1999.90;999.90;;;;;;;;;;5081710;28;21336;-72
2022/08/31 12:33:49;;;;;;;1999.90;999.90;;;;;;;;;;5083469;28;20531;-73
2022/08/31 12:36:18;;;;;;;1999.90;999.90;;;;;;;;;;5089568;28;20937;-73
2022/08/31 12:38:46;;;;;;;1999.90;999.90;;;;;;;;;;5088056;27;20419;-73
2022/08/31 12:41:14;;;;;;;1999.90;999.90;;;;;;;;;;5082913;28;20402;-72
2022/08/31 12:43:43;;;;;;;1999.90;999.90;;;;;;;;;;5082567;28;21427;-74
2022/08/31 12:46:29;;;;;;;1999.90;999.90;;;;;;;;;;5088506;28;20392;-74
2022/08/31 12:49:10;;;;;;;1999.90;999.90;;;;;;;;;;5081880;28;20411;-75
2022/08/31 12:51:42;;;;;;;1999.90;999.90;;;;;;;;;;5085147;28;20412;-74
2022/08/31 12:54:36;;;;;;;1999.90;999.90;;;;;;;;;;5084669;28;20403;-74
2022/08/31 12:57:07;;;;;;;1999.90;999.90;;;;;;;;;;5076097;28;20456;-74
2022/08/31 12:59:38;;;;;;;1999.90;999.90;;;;;;;;;;5086487;28;20520;-75
2022/08/31 13:02:27;;;;;;;1999.90;999.90;;;;;;;;;;5081287;28;20393;-75
2022/08/31 13:04:57;;;;;;;1999.90;999.90;;;;;;;;;;5084006;28;20417;-75
2022/08/31 13:07:29;;;;;;;1999.90;999.90;;;;;;;;;;5083193;28;21469;-75
2022/08/31 13:10:07;;;;;;;1999.90;999.90;;;;;;;;;;5080226;28;20413;-75
2022/08/31 13:12:35;;;;;;;1999.90;999.90;;;;;;;;;;5079784;28;20437;-76
2022/08/31 13:15:04;;;;;;;1999.90;999.90;;;;;;;;;;5083618;28;20423;-72
2022/08/31 13:17:37;;;;;;;1999.90;999.90;;;;;;;;;;5070073;28;21248;-70
2022/08/31 13:20:06;;;;;;;1999.90;999.90;;;;;;;;;;5080520;28;20460;-71
2022/08/31 13:22:38;;;;;;;1999.90;999.90;;;;;;;;;;5077873;28;20397;-71
2022/08/31 13:25:11;;;;;;;1999.90;999.90;;;;;;;;;;5078774;28;20397;-73
2022/08/31 13:27:45;;;;;;;1999.90;999.90;;;;;;;;;;5079888;28;20556;-72
2022/08/31 13:30:17;;;;;;;1999.90;999.90;;;;;;;;;;5079170;28;20385;-72
2022/08/31 13:32:53;;;;;;;1999.90;999.90;;;;;;;;;;5093682;27;20463;-72
2022/08/31 13:35:23;;;;;;;1999.90;999.90;;;;;;;;;;5083846;28;20413;-72
2022/08/31 13:38:02;;;;;;;1999.90;999.90;;;;;;;;;;5073419;28;20402;-72
2022/08/31 13:40:33;;;;;;;1999.90;999.90;;;;;;;;;;5078739;28;20415;-71
2022/08/31 13:43:01;;;;;;;1999.90;999.90;;;;;;;;;;5079712;28;20841;-72
2022/08/31 13:45:30;;;;;;;1999.90;999.90;;;;;;;;;;5073378;28;20407;-71
2022/08/31 13:48:01;;;;;;;1999.90;999.90;;;;;;;;;;5075858;28;20836;-72
2022/08/31 13:50:36;;;;;;;1999.90;999.90;;;;;;;;;;5076788;28;20397;-71
2022/08/31 13:53:05;;;;;;;1999.90;999.90;;;;;;;;;;5077702;28;21350;-71
2022/08/31 13:55:53;;;;;;;1999.90;999.90;;;;;;;;;;5084688;28;20222;-71
2022/08/31 13:58:26;;;;;;;1999.90;999.90;;;;;;;;;;5081743;28;20791;-70
2022/08/31 14:01:15;;;;;;;1999.90;999.90;;;;;;;;;;5080544;28;20728;-71
2022/08/31 14:03:55;;;;;;;1999.90;999.90;;;;;;;;;;5075519;28;20223;-71
2022/08/31 14:06:25;;;;;;;1999.90;999.90;;;;;;;;;;5079295;28;20236;-71
2022/08/31 14:08:55;;;;;;;1999.90;999.90;;;;;;;;;;5080078;28;20822;-72
2022/08/31 14:11:27;;;;;;;1999.90;999.90;;;;;;;;;;5077164;28;20223;-71
2022/08/31 14:14:04;;;;;;;1999.90;999.90;;;;;;;;;;5072195;28;20347;-72
2022/08/31 14:16:34;;;;;;;1999.90;999.90;;;;;;;;;;5094265;27;20693;-71
2022/08/31 14:19:03;;;;;;;1999.90;999.90;;;;;;;;;;5079070;28;20585;-72
2022/08/31 14:21:32;;;;;;;1999.90;999.90;;;;;;;;;;5082101;28;20232;-73
2022/08/31 14:24:00;;;;;;;1999.90;999.90;;;;;;;;;;5082563;28;20227;-72
2022/08/31 14:26:30;;;;;;;1999.90;999.90;;;;;;;;;;5080453;28;20779;-72
2022/08/31 14:29:00;;;;;;;1999.90;999.90;;;;;;;;;;5087636;28;20230;-74